Terminal Aerodrome Forecast
Issued by NWS Tampa Bay Area, FL

Home | Current Version | Previous Version | Text Only | Print | Product List | Glossary On
Versions: 1 2 3 4 5 6 7 8 9 10 11 12 13 14 15 16 17 18 19 20 21 22 23 24
312
FTUS42 KTBW 222124 AAA
TAFTPA
TAF AMD
KTPA 222124Z 2221/2318 19025G30KT P6SM VCTS BKN015CB BKN025
      TEMPO 2221/2224 VRB40G60KT 1SM +TSRA BKN010CB
     FM230300 25020G30KT P6SM VCTS SCT035CB BKN200
     FM230900 27020G29KT P6SM SHRA SCT030 BKN045
     FM231100 28015G23KT P6SM SHRA SCT015 BKN040=

USA.gov is the U.S. government's official web portal to all federal, state and local government web resources and services.